createdAt,value
2022-10-01T00:03:26.072Z,3.97
2022-10-01T00:18:29.695Z,4.05
2022-10-01T00:33:31.602Z,3.80
2022-10-01T00:48:37.716Z,4.03
2022-10-01T04:42:31.271Z,3.50
2022-10-01T04:57:33.875Z,3.60
2022-10-01T05:12:35.836Z,3.70
2022-10-01T05:27:38.940Z,3.60
2022-10-01T05:42:46.115Z,3.50
2022-10-01T05:57:55.682Z,3.90
2022-10-01T06:13:07.814Z,3.83
2022-10-01T06:28:12.272Z,3.90
2022-10-01T06:43:14.377Z,3.80
2022-10-01T06:58:17.227Z,3.72
2022-10-01T07:13:20.989Z,4.95
2022-10-01T07:28:34.882Z,3.75
2022-10-01T07:43:37.529Z,3.50
2022-10-01T07:58:39.645Z,3.25
2022-10-01T08:13:41.687Z,4.93
2022-10-01T08:28:43.713Z,3.33
2022-10-01T08:43:45.813Z,2.95
2022-10-01T08:58:50.371Z,2.75
2022-10-01T09:14:07.425Z,2.95
2022-10-01T09:29:15.851Z,2.40
2022-10-01T09:44:29.469Z,2.50
2022-10-01T09:59:36.816Z,2.58
2022-10-01T10:14:41.283Z,2.80
2022-10-01T10:29:43.251Z,2.65
2022-10-01T10:44:47.115Z,2.20
2022-10-01T11:00:17.372Z,2.25
2022-10-01T11:15:32.433Z,2.10
2022-10-01T11:30:43.683Z,2.28
2022-10-01T11:45:49.707Z,2.38
2022-10-01T12:01:05.772Z,2.05
2022-10-01T12:16:10.843Z,2.00
2022-10-01T12:31:28.841Z,2.00
2022-10-01T12:46:49.862Z,2.00
2022-10-01T13:02:00.613Z,1.90
2022-10-01T13:17:25.599Z,2.10
2022-10-01T13:32:32.334Z,3.90
2022-10-01T13:47:36.293Z,2.95
2022-10-01T14:02:40.093Z,2.97
2022-10-01T14:17:43.222Z,2.70
2022-10-01T14:33:22.682Z,2.70
2022-10-01T14:48:26.360Z,2.50
2022-10-01T15:03:38.714Z,2.40
2022-10-01T15:18:58.447Z,2.40
2022-10-01T15:34:03.105Z,2.20
2022-10-01T15:49:22.425Z,2.00
2022-10-01T16:04:24.426Z,2.50
2022-10-01T16:19:30.287Z,2.55
2022-10-01T16:34:32.280Z,2.47
2022-10-01T16:49:35.154Z,2.60
2022-10-01T17:04:37.088Z,2.25
2022-10-01T17:19:39.038Z,2.70
2022-10-01T17:34:42.989Z,2.40
2022-10-01T17:49:48.562Z,2.50
2022-10-01T18:04:52.305Z,2.15
2022-10-01T18:19:55.754Z,2.10
2022-10-01T18:34:59.381Z,2.20
2022-10-01T18:50:17.898Z,2.20
2022-10-01T19:05:51.898Z,2.30
2022-10-01T19:21:12.356Z,2.50
2022-10-01T19:36:35.624Z,2.35
2022-10-01T19:51:41.400Z,2.55
2022-10-01T20:06:44.442Z,2.15
2022-10-01T20:22:05.520Z,2.03
2022-10-01T20:37:35.177Z,2.03
2022-10-01T20:52:54.722Z,1.90
2022-10-01T21:07:58.539Z,2.20
2022-10-01T21:23:29.389Z,2.00
2022-10-01T21:38:43.963Z,1.95
2022-10-01T21:54:09.067Z,1.90
2022-10-01T22:09:24.363Z,2.13
2022-10-01T22:24:41.111Z,1.80
2022-10-01T22:39:49.441Z,2.00
2022-10-01T22:55:10.353Z,2.10
2022-10-01T23:10:33.638Z,2.00
2022-10-01T23:25:40.036Z,2.20
2022-10-01T23:40:43.759Z,2.10
2022-10-01T23:56:06.134Z,2.03
